sensor_id;sensor_type;location;lat;lon;timestamp;P1;durP1;ratioP1;P2;durP2;ratioP2
63693;SDS011;49839;51.798;10.954;2022-10-16T00:01:28;4.30;;;1.73;;
63693;SDS011;49839;51.798;10.954;2022-10-16T00:03:59;5.25;;;1.90;;
63693;SDS011;49839;51.798;10.954;2022-10-16T00:06:28;8.45;;;1.95;;
63693;SDS011;49839;51.798;10.954;2022-10-16T00:08:59;4.93;;;1.73;;
63693;SDS011;49839;51.798;10.954;2022-10-16T00:11:28;5.65;;;1.27;;
63693;SDS011;49839;51.798;10.954;2022-10-16T00:14:01;4.18;;;1.67;;
63693;SDS011;49839;51.798;10.954;2022-10-16T00:16:33;7.30;;;2.80;;
63693;SDS011;49839;51.798;10.954;2022-10-16T00:19:02;8.15;;;3.28;;
63693;SDS011;49839;51.798;10.954;2022-10-16T00:21:31;10.68;;;3.03;;
63693;SDS011;49839;51.798;10.954;2022-10-16T00:24:00;5.57;;;2.00;;
63693;SDS011;49839;51.798;10.954;2022-10-16T00:26:32;5.40;;;1.52;;
63693;SDS011;49839;51.798;10.954;2022-10-16T00:29:02;3.33;;;1.13;;
63693;SDS011;49839;51.798;10.954;2022-10-16T00:31:32;2.85;;;0.98;;
63693;SDS011;49839;51.798;10.954;2022-10-16T00:34:01;2.75;;;0.90;;
63693;SDS011;49839;51.798;10.954;2022-10-16T00:36:30;5.55;;;2.17;;
63693;SDS011;49839;51.798;10.954;2022-10-16T00:38:58;14.65;;;5.53;;
63693;SDS011;49839;51.798;10.954;2022-10-16T00:41:28;11.50;;;5.13;;
63693;SDS011;49839;51.798;10.954;2022-10-16T00:43:57;10.68;;;3.45;;
63693;SDS011;49839;51.798;10.954;2022-10-16T00:46:27;6.95;;;2.63;;
63693;SDS011;49839;51.798;10.954;2022-10-16T00:49:01;10.02;;;4.30;;
63693;SDS011;49839;51.798;10.954;2022-10-16T00:51:33;17.42;;;7.00;;
63693;SDS011;49839;51.798;10.954;2022-10-16T00:54:03;16.15;;;6.30;;
63693;SDS011;49839;51.798;10.954;2022-10-16T00:56:35;9.55;;;2.78;;
63693;SDS011;49839;51.798;10.954;2022-10-16T00:59:04;6.32;;;1.98;;
63693;SDS011;49839;51.798;10.954;2022-10-16T01:01:39;3.92;;;1.60;;
63693;SDS011;49839;51.798;10.954;2022-10-16T01:04:08;3.10;;;0.98;;
63693;SDS011;49839;51.798;10.954;2022-10-16T01:06:38;15.77;;;7.45;;
63693;SDS011;49839;51.798;10.954;2022-10-16T01:09:12;14.82;;;5.70;;
63693;SDS011;49839;51.798;10.954;2022-10-16T01:11:51;14.63;;;5.25;;
63693;SDS011;49839;51.798;10.954;2022-10-16T01:14:32;13.85;;;6.20;;
63693;SDS011;49839;51.798;10.954;2022-10-16T01:17:09;28.98;;;15.40;;
63693;SDS011;49839;51.798;10.954;2022-10-16T01:22:39;6.85;;;3.20;;
63693;SDS011;49839;51.798;10.954;2022-10-16T01:25:18;9.35;;;3.75;;
63693;SDS011;49839;51.798;10.954;2022-10-16T01:27:54;11.52;;;4.50;;
63693;SDS011;49839;51.798;10.954;2022-10-16T01:30:24;11.27;;;4.47;;
63693;SDS011;49839;51.798;10.954;2022-10-16T01:32:56;8.90;;;4.03;;
63693;SDS011;49839;51.798;10.954;2022-10-16T01:35:29;10.30;;;4.43;;
63693;SDS011;49839;51.798;10.954;2022-10-16T01:38:00;7.22;;;2.30;;
63693;SDS011;49839;51.798;10.954;2022-10-16T01:40:32;6.03;;;2.05;;
63693;SDS011;49839;51.798;10.954;2022-10-16T01:43:06;9.55;;;2.50;;
63693;SDS011;49839;51.798;10.954;2022-10-16T01:45:39;10.18;;;3.20;;
63693;SDS011;49839;51.798;10.954;2022-10-16T01:48:09;11.25;;;3.63;;
63693;SDS011;49839;51.798;10.954;2022-10-16T01:50:39;18.45;;;7.32;;
63693;SDS011;49839;51.798;10.954;2022-10-16T01:53:12;29.58;;;12.90;;
63693;SDS011;49839;51.798;10.954;2022-10-16T01:55:43;46.20;;;22.05;;
63693;SDS011;49839;51.798;10.954;2022-10-16T01:58:16;15.82;;;5.72;;
63693;SDS011;49839;51.798;10.954;2022-10-16T02:00:45;20.45;;;8.98;;
63693;SDS011;49839;51.798;10.954;2022-10-16T02:03:16;18.70;;;7.65;;
63693;SDS011;49839;51.798;10.954;2022-10-16T02:05:47;11.10;;;4.35;;
63693;SDS011;49839;51.798;10.954;2022-10-16T02:08:19;21.08;;;8.50;;
63693;SDS011;49839;51.798;10.954;2022-10-16T02:10:50;12.90;;;4.50;;
63693;SDS011;49839;51.798;10.954;2022-10-16T02:13:21;5.55;;;2.08;;
63693;SDS011;49839;51.798;10.954;2022-10-16T02:15:53;4.32;;;1.45;;
63693;SDS011;49839;51.798;10.954;2022-10-16T02:18:22;6.43;;;1.70;;
63693;SDS011;49839;51.798;10.954;2022-10-16T02:20:57;7.00;;;2.50;;
63693;SDS011;49839;51.798;10.954;2022-10-16T02:23:30;10.50;;;3.55;;
63693;SDS011;49839;51.798;10.954;2022-10-16T02:26:03;8.10;;;3.38;;
63693;SDS011;49839;51.798;10.954;2022-10-16T02:28:39;11.75;;;4.82;;
63693;SDS011;49839;51.798;10.954;2022-10-16T02:31:13;4.90;;;1.23;;
63693;SDS011;49839;51.798;10.954;2022-10-16T02:33:46;2.40;;;0.85;;
63693;SDS011;49839;51.798;10.954;2022-10-16T02:36:14;4.25;;;1.20;;
63693;SDS011;49839;51.798;10.954;2022-10-16T02:38:43;8.03;;;2.33;;
63693;SDS011;49839;51.798;10.954;2022-10-16T02:41:12;5.45;;;2.42;;
63693;SDS011;49839;51.798;10.954;2022-10-16T02:43:42;9.13;;;3.92;;
63693;SDS011;49839;51.798;10.954;2022-10-16T02:46:10;8.18;;;3.45;;
63693;SDS011;49839;51.798;10.954;2022-10-16T02:48:39;33.10;;;15.73;;
63693;SDS011;49839;51.798;10.954;2022-10-16T02:51:08;23.67;;;10.80;;
63693;SDS011;49839;51.798;10.954;2022-10-16T02:53:36;15.35;;;6.07;;
63693;SDS011;49839;51.798;10.954;2022-10-16T02:56:05;5.47;;;2.27;;
63693;SDS011;49839;51.798;10.954;2022-10-16T02:58:35;3.72;;;1.50;;
63693;SDS011;49839;51.798;10.954;2022-10-16T03:01:05;3.27;;;1.10;;
63693;SDS011;49839;51.798;10.954;2022-10-16T03:03:33;4.75;;;1.60;;
63693;SDS011;49839;51.798;10.954;2022-10-16T03:06:02;4.88;;;1.95;;
63693;SDS011;49839;51.798;10.954;2022-10-16T03:08:30;1.88;;;0.80;;
63693;SDS011;49839;51.798;10.954;2022-10-16T03:10:58;2.72;;;0.75;;
63693;SDS011;49839;51.798;10.954;2022-10-16T03:13:26;1.73;;;0.88;;
63693;SDS011;49839;51.798;10.954;2022-10-16T03:15:54;2.28;;;1.00;;
63693;SDS011;49839;51.798;10.954;2022-10-16T03:18:24;1.75;;;1.00;;
63693;SDS011;49839;51.798;10.954;2022-10-16T03:20:53;3.35;;;0.82;;
63693;SDS011;49839;51.798;10.954;2022-10-16T03:23:22;5.40;;;1.45;;
63693;SDS011;49839;51.798;10.954;2022-10-16T03:25:50;8.90;;;2.65;;
63693;SDS011;49839;51.798;10.954;2022-10-16T03:28:21;7.78;;;4.32;;
63693;SDS011;49839;51.798;10.954;2022-10-16T03:30:50;5.53;;;2.72;;
63693;SDS011;49839;51.798;10.954;2022-10-16T03:33:18;3.85;;;2.13;;
63693;SDS011;49839;51.798;10.954;2022-10-16T03:35:52;4.28;;;2.40;;
63693;SDS011;49839;51.798;10.954;2022-10-16T03:38:21;4.55;;;2.25;;
63693;SDS011;49839;51.798;10.954;2022-10-16T03:40:49;6.95;;;1.73;;
63693;SDS011;49839;51.798;10.954;2022-10-16T03:43:18;3.13;;;1.38;;
63693;SDS011;49839;51.798;10.954;2022-10-16T03:45:46;2.58;;;1.38;;
63693;SDS011;49839;51.798;10.954;2022-10-16T03:48:14;2.78;;;1.40;;
63693;SDS011;49839;51.798;10.954;2022-10-16T03:50:43;2.95;;;1.40;;
63693;SDS011;49839;51.798;10.954;2022-10-16T03:53:16;4.55;;;1.20;;
63693;SDS011;49839;51.798;10.954;2022-10-16T03:55:45;2.63;;;1.25;;
63693;SDS011;49839;51.798;10.954;2022-10-16T03:58:13;2.75;;;0.98;;
63693;SDS011;49839;51.798;10.954;2022-10-16T04:00:42;2.97;;;0.80;;
63693;SDS011;49839;51.798;10.954;2022-10-16T04:03:12;2.25;;;0.90;;
63693;SDS011;49839;51.798;10.954;2022-10-16T04:05:40;2.58;;;0.80;;
63693;SDS011;49839;51.798;10.954;2022-10-16T04:08:09;5.18;;;0.82;;
63693;SDS011;49839;51.798;10.954;2022-10-16T04:10:39;4.13;;;1.00;;
63693;SDS011;49839;51.798;10.954;2022-10-16T04:15:35;3.85;;;1.00;;
63693;SDS011;49839;51.798;10.954;2022-10-16T04:18:03;1.33;;;0.70;;
63693;SDS011;49839;51.798;10.954;2022-10-16T04:20:31;4.18;;;1.50;;
63693;SDS011;49839;51.798;10.954;2022-10-16T04:22:59;3.75;;;1.38;;
63693;SDS011;49839;51.798;10.954;2022-10-16T04:25:27;3.70;;;1.42;;
63693;SDS011;49839;51.798;10.954;2022-10-16T04:27:58;5.18;;;1.75;;
63693;SDS011;49839;51.798;10.954;2022-10-16T04:30:26;9.65;;;3.22;;
63693;SDS011;49839;51.798;10.954;2022-10-16T04:32:55;11.30;;;4.78;;
63693;SDS011;49839;51.798;10.954;2022-10-16T04:35:26;8.00;;;3.47;;
63693;SDS011;49839;51.798;10.954;2022-10-16T04:37:56;6.47;;;2.22;;
63693;SDS011;49839;51.798;10.954;2022-10-16T04:40:25;6.72;;;2.30;;
63693;SDS011;49839;51.798;10.954;2022-10-16T04:42:53;4.28;;;1.90;;
63693;SDS011;49839;51.798;10.954;2022-10-16T04:45:23;11.02;;;4.28;;
63693;SDS011;49839;51.798;10.954;2022-10-16T04:47:51;4.72;;;1.90;;
63693;SDS011;49839;51.798;10.954;2022-10-16T04:50:19;7.43;;;2.92;;
63693;SDS011;49839;51.798;10.954;2022-10-16T04:52:47;10.07;;;4.13;;
63693;SDS011;49839;51.798;10.954;2022-10-16T04:55:16;6.93;;;2.08;;
63693;SDS011;49839;51.798;10.954;2022-10-16T04:57:44;5.90;;;2.30;;
63693;SDS011;49839;51.798;10.954;2022-10-16T05:00:12;2.83;;;1.30;;
63693;SDS011;49839;51.798;10.954;2022-10-16T05:02:42;2.63;;;1.00;;
63693;SDS011;49839;51.798;10.954;2022-10-16T05:07:39;3.58;;;1.40;;
63693;SDS011;49839;51.798;10.954;2022-10-16T05:10:07;4.35;;;1.50;;
63693;SDS011;49839;51.798;10.954;2022-10-16T05:12:35;3.30;;;1.10;;
63693;SDS011;49839;51.798;10.954;2022-10-16T05:15:03;3.20;;;1.15;;
63693;SDS011;49839;51.798;10.954;2022-10-16T05:17:32;3.50;;;1.15;;
63693;SDS011;49839;51.798;10.954;2022-10-16T05:20:01;1.95;;;1.10;;
63693;SDS011;49839;51.798;10.954;2022-10-16T05:22:30;2.85;;;1.00;;
63693;SDS011;49839;51.798;10.954;2022-10-16T05:24:58;2.53;;;1.10;;
63693;SDS011;49839;51.798;10.954;2022-10-16T05:27:27;4.47;;;1.55;;
63693;SDS011;49839;51.798;10.954;2022-10-16T05:29:55;9.38;;;1.35;;
63693;SDS011;49839;51.798;10.954;2022-10-16T05:32:23;2.42;;;1.15;;
63693;SDS011;49839;51.798;10.954;2022-10-16T05:34:51;2.28;;;1.13;;
63693;SDS011;49839;51.798;10.954;2022-10-16T05:37:21;3.90;;;1.10;;
63693;SDS011;49839;51.798;10.954;2022-10-16T05:39:49;3.45;;;1.10;;
63693;SDS011;49839;51.798;10.954;2022-10-16T05:42:18;4.50;;;1.00;;
63693;SDS011;49839;51.798;10.954;2022-10-16T05:44:46;2.60;;;1.10;;
63693;SDS011;49839;51.798;10.954;2022-10-16T05:47:15;6.22;;;1.00;;
63693;SDS011;49839;51.798;10.954;2022-10-16T05:49:43;3.83;;;0.95;;
63693;SDS011;49839;51.798;10.954;2022-10-16T05:52:11;2.88;;;1.08;;
63693;SDS011;49839;51.798;10.954;2022-10-16T05:54:41;6.78;;;3.03;;
63693;SDS011;49839;51.798;10.954;2022-10-16T05:57:09;7.63;;;2.53;;
63693;SDS011;49839;51.798;10.954;2022-10-16T05:59:37;2.75;;;1.30;;
63693;SDS011;49839;51.798;10.954;2022-10-16T06:02:05;2.53;;;1.00;;
63693;SDS011;49839;51.798;10.954;2022-10-16T06:04:36;4.15;;;1.40;;
63693;SDS011;49839;51.798;10.954;2022-10-16T06:07:04;3.05;;;1.15;;
63693;SDS011;49839;51.798;10.954;2022-10-16T06:09:32;2.70;;;1.10;;
63693;SDS011;49839;51.798;10.954;2022-10-16T06:12:02;1.83;;;0.82;;
63693;SDS011;49839;51.798;10.954;2022-10-16T06:14:30;2.72;;;0.95;;
63693;SDS011;49839;51.798;10.954;2022-10-16T06:16:59;2.33;;;0.95;;
63693;SDS011;49839;51.798;10.954;2022-10-16T06:19:27;2.45;;;0.75;;
63693;SDS011;49839;51.798;10.954;2022-10-16T06:21:55;2.20;;;0.77;;
63693;SDS011;49839;51.798;10.954;2022-10-16T06:24:24;4.18;;;1.13;;
63693;SDS011;49839;51.798;10.954;2022-10-16T06:26:52;4.35;;;0.82;;
63693;SDS011;49839;51.798;10.954;2022-10-16T06:29:22;3.92;;;1.00;;
63693;SDS011;49839;51.798;10.954;2022-10-16T06:34:19;2.37;;;1.00;;
63693;SDS011;49839;51.798;10.954;2022-10-16T06:36:47;2.13;;;0.90;;
63693;SDS011;49839;51.798;10.954;2022-10-16T06:39:15;3.20;;;0.68;;
63693;SDS011;49839;51.798;10.954;2022-10-16T06:41:44;3.33;;;0.90;;
63693;SDS011;49839;51.798;10.954;2022-10-16T06:44:15;2.05;;;0.70;;
63693;SDS011;49839;51.798;10.954;2022-10-16T06:46:45;6.38;;;0.93;;
63693;SDS011;49839;51.798;10.954;2022-10-16T06:49:13;4.88;;;0.80;;
63693;SDS011;49839;51.798;10.954;2022-10-16T06:51:47;3.53;;;0.60;;
63693;SDS011;49839;51.798;10.954;2022-10-16T06:54:15;1.58;;;0.70;;
63693;SDS011;49839;51.798;10.954;2022-10-16T06:56:44;2.85;;;0.70;;
63693;SDS011;49839;51.798;10.954;2022-10-16T06:59:12;3.42;;;1.20;;
63693;SDS011;49839;51.798;10.954;2022-10-16T07:01:40;3.72;;;0.82;;
63693;SDS011;49839;51.798;10.954;2022-10-16T07:04:09;3.20;;;1.58;;
63693;SDS011;49839;51.798;10.954;2022-10-16T07:06:37;2.55;;;0.75;;
63693;SDS011;49839;51.798;10.954;2022-10-16T07:09:06;1.88;;;0.57;;
63693;SDS011;49839;51.798;10.954;2022-10-16T07:11:38;3.28;;;0.70;;
63693;SDS011;49839;51.798;10.954;2022-10-16T07:16:39;2.83;;;0.68;;
63693;SDS011;49839;51.798;10.954;2022-10-16T07:19:08;2.63;;;1.00;;
63693;SDS011;49839;51.798;10.954;2022-10-16T07:21:38;3.40;;;0.90;;
63693;SDS011;49839;51.798;10.954;2022-10-16T07:24:10;3.22;;;1.10;;
63693;SDS011;49839;51.798;10.954;2022-10-16T07:26:39;5.00;;;0.95;;
63693;SDS011;49839;51.798;10.954;2022-10-16T07:29:11;2.58;;;0.93;;
63693;SDS011;49839;51.798;10.954;2022-10-16T07:31:41;3.22;;;1.05;;
63693;SDS011;49839;51.798;10.954;2022-10-16T07:34:12;1.38;;;0.65;;
63693;SDS011;49839;51.798;10.954;2022-10-16T07:36:43;3.13;;;0.73;;
63693;SDS011;49839;51.798;10.954;2022-10-16T07:39:14;1.17;;;0.55;;
63693;SDS011;49839;51.798;10.954;2022-10-16T07:41:43;2.75;;;0.60;;
63693;SDS011;49839;51.798;10.954;2022-10-16T07:44:11;3.63;;;0.70;;
63693;SDS011;49839;51.798;10.954;2022-10-16T07:46:39;3.13;;;1.10;;
63693;SDS011;49839;51.798;10.954;2022-10-16T07:49:08;3.08;;;1.15;;
63693;SDS011;49839;51.798;10.954;2022-10-16T07:51:38;3.97;;;0.80;;
63693;SDS011;49839;51.798;10.954;2022-10-16T07:54:07;2.47;;;0.70;;
63693;SDS011;49839;51.798;10.954;2022-10-16T07:59:06;4.43;;;0.90;;
63693;SDS011;49839;51.798;10.954;2022-10-16T08:01:35;6.43;;;0.80;;
63693;SDS011;49839;51.798;10.954;2022-10-16T08:04:04;2.35;;;0.80;;
63693;SDS011;49839;51.798;10.954;2022-10-16T08:06:35;2.40;;;0.65;;
63693;SDS011;49839;51.798;10.954;2022-10-16T08:09:06;2.85;;;0.80;;
63693;SDS011;49839;51.798;10.954;2022-10-16T08:11:38;1.85;;;0.60;;
63693;SDS011;49839;51.798;10.954;2022-10-16T08:14:08;3.35;;;0.70;;
63693;SDS011;49839;51.798;10.954;2022-10-16T08:16:37;1.75;;;0.70;;
63693;SDS011;49839;51.798;10.954;2022-10-16T08:19:05;1.60;;;0.75;;
63693;SDS011;49839;51.798;10.954;2022-10-16T08:21:33;2.10;;;0.60;;
63693;SDS011;49839;51.798;10.954;2022-10-16T08:24:04;0.98;;;0.50;;
63693;SDS011;49839;51.798;10.954;2022-10-16T08:26:35;0.65;;;0.50;;
63693;SDS011;49839;51.798;10.954;2022-10-16T08:29:03;0.70;;;0.50;;
63693;SDS011;49839;51.798;10.954;2022-10-16T08:31:32;1.48;;;0.55;;
63693;SDS011;49839;51.798;10.954;2022-10-16T08:34:01;1.77;;;0.80;;
63693;SDS011;49839;51.798;10.954;2022-10-16T08:36:29;0.98;;;0.50;;
63693;SDS011;49839;51.798;10.954;2022-10-16T08:38:57;2.30;;;0.82;;
63693;SDS011;49839;51.798;10.954;2022-10-16T08:41:35;2.05;;;0.60;;
63693;SDS011;49839;51.798;10.954;2022-10-16T08:47:06;1.70;;;0.65;;
63693;SDS011;49839;51.798;10.954;2022-10-16T08:49:41;1.77;;;0.80;;
63693;SDS011;49839;51.798;10.954;2022-10-16T08:52:15;4.32;;;0.77;;
63693;SDS011;49839;51.798;10.954;2022-10-16T08:54:45;3.92;;;0.77;;
63693;SDS011;49839;51.798;10.954;2022-10-16T08:57:20;0.90;;;0.50;;
63693;SDS011;49839;51.798;10.954;2022-10-16T08:59:51;1.15;;;0.60;;
63693;SDS011;49839;51.798;10.954;2022-10-16T09:02:29;2.42;;;0.70;;
63693;SDS011;49839;51.798;10.954;2022-10-16T09:05:02;1.48;;;0.60;;
63693;SDS011;49839;51.798;10.954;2022-10-16T09:07:48;1.33;;;0.52;;
63693;SDS011;49839;51.798;10.954;2022-10-16T09:10:33;2.25;;;0.80;;
63693;SDS011;49839;51.798;10.954;2022-10-16T09:13:14;6.30;;;0.65;;
63693;SDS011;49839;51.798;10.954;2022-10-16T09:15:51;1.15;;;0.50;;
63693;SDS011;49839;51.798;10.954;2022-10-16T09:18:27;0.57;;;0.50;;
63693;SDS011;49839;51.798;10.954;2022-10-16T09:21:01;2.65;;;0.55;;
63693;SDS011;49839;51.798;10.954;2022-10-16T09:23:37;3.08;;;0.80;;
63693;SDS011;49839;51.798;10.954;2022-10-16T09:26:09;3.55;;;0.50;;
63693;SDS011;49839;51.798;10.954;2022-10-16T09:28:41;2.30;;;0.38;;
63693;SDS011;49839;51.798;10.954;2022-10-16T09:31:12;0.32;;;0.30;;
63693;SDS011;49839;51.798;10.954;2022-10-16T09:33:52;3.47;;;0.60;;
63693;SDS011;49839;51.798;10.954;2022-10-16T09:36:26;1.67;;;0.30;;
63693;SDS011;49839;51.798;10.954;2022-10-16T09:39:04;0.63;;;0.30;;
63693;SDS011;49839;51.798;10.954;2022-10-16T09:41:37;2.53;;;0.52;;
63693;SDS011;49839;51.798;10.954;2022-10-16T09:44:16;4.10;;;0.52;;
63693;SDS011;49839;51.798;10.954;2022-10-16T09:46:49;1.05;;;0.45;;
63693;SDS011;49839;51.798;10.954;2022-10-16T09:49:29;2.22;;;0.45;;
63693;SDS011;49839;51.798;10.954;2022-10-16T09:52:05;3.80;;;0.50;;
63693;SDS011;49839;51.798;10.954;2022-10-16T09:54:48;0.77;;;0.50;;
63693;SDS011;49839;51.798;10.954;2022-10-16T09:57:21;1.55;;;0.50;;
63693;SDS011;49839;51.798;10.954;2022-10-16T09:59:53;0.63;;;0.55;;
63693;SDS011;49839;51.798;10.954;2022-10-16T10:02:25;2.55;;;0.88;;
63693;SDS011;49839;51.798;10.954;2022-10-16T10:05:01;2.73;;;0.87;;
63693;SDS011;49839;51.798;10.954;2022-10-16T10:07:32;2.35;;;0.40;;
63693;SDS011;49839;51.798;10.954;2022-10-16T10:10:18;3.70;;;0.70;;
63693;SDS011;49839;51.798;10.954;2022-10-16T10:12:51;1.95;;;0.77;;
63693;SDS011;49839;51.798;10.954;2022-10-16T10:15:23;0.70;;;0.30;;
63693;SDS011;49839;51.798;10.954;2022-10-16T10:18:00;1.05;;;0.40;;
63693;SDS011;49839;51.798;10.954;2022-10-16T10:20:31;1.95;;;0.57;;
63693;SDS011;49839;51.798;10.954;2022-10-16T10:23:13;1.70;;;0.20;;
63693;SDS011;49839;51.798;10.954;2022-10-16T10:25:49;1.27;;;0.47;;
63693;SDS011;49839;51.798;10.954;2022-10-16T10:28:41;1.83;;;0.57;;
63693;SDS011;49839;51.798;10.954;2022-10-16T10:31:25;2.45;;;0.52;;
63693;SDS011;49839;51.798;10.954;2022-10-16T10:34:04;2.88;;;0.70;;
63693;SDS011;49839;51.798;10.954;2022-10-16T10:36:46;1.27;;;0.50;;
63693;SDS011;49839;51.798;10.954;2022-10-16T10:39:22;2.17;;;0.40;;
63693;SDS011;49839;51.798;10.954;2022-10-16T10:42:04;2.10;;;0.63;;
63693;SDS011;49839;51.798;10.954;2022-10-16T10:48:06;1.95;;;0.40;;
63693;SDS011;49839;51.798;10.954;2022-10-16T10:50:45;0.38;;;0.30;;
63693;SDS011;49839;51.798;10.954;2022-10-16T10:53:24;1.15;;;0.30;;
63693;SDS011;49839;51.798;10.954;2022-10-16T10:56:13;3.72;;;0.30;;
63693;SDS011;49839;51.798;10.954;2022-10-16T11:01:54;1.95;;;0.57;;
63693;SDS011;49839;51.798;10.954;2022-10-16T11:04:41;1.42;;;0.40;;
63693;SDS011;49839;51.798;10.954;2022-10-16T11:07:18;0.90;;;0.40;;
63693;SDS011;49839;51.798;10.954;2022-10-16T11:09:51;2.35;;;0.43;;
63693;SDS011;49839;51.798;10.954;2022-10-16T11:12:24;0.70;;;0.38;;
63693;SDS011;49839;51.798;10.954;2022-10-16T11:14:58;1.10;;;0.50;;
63693;SDS011;49839;51.798;10.954;2022-10-16T11:17:33;2.13;;;0.40;;
63693;SDS011;49839;51.798;10.954;2022-10-16T11:20:13;1.25;;;0.50;;
63693;SDS011;49839;51.798;10.954;2022-10-16T11:22:47;1.30;;;0.73;;
63693;SDS011;49839;51.798;10.954;2022-10-16T11:25:21;1.13;;;0.30;;
63693;SDS011;49839;51.798;10.954;2022-10-16T11:27:53;1.15;;;0.30;;
63693;SDS011;49839;51.798;10.954;2022-10-16T11:30:26;1.92;;;0.30;;
63693;SDS011;49839;51.798;10.954;2022-10-16T11:33:02;1.25;;;0.40;;
63693;SDS011;49839;51.798;10.954;2022-10-16T11:35:55;3.40;;;0.40;;
63693;SDS011;49839;51.798;10.954;2022-10-16T11:38:34;1.85;;;0.30;;
63693;SDS011;49839;51.798;10.954;2022-10-16T11:41:13;1.00;;;0.30;;
63693;SDS011;49839;51.798;10.954;2022-10-16T11:44:13;1.15;;;0.40;;
63693;SDS011;49839;51.798;10.954;2022-10-16T11:46:48;2.10;;;0.40;;
63693;SDS011;49839;51.798;10.954;2022-10-16T11:49:26;4.03;;;0.30;;
63693;SDS011;49839;51.798;10.954;2022-10-16T11:52:02;0.88;;;0.20;;
63693;SDS011;49839;51.798;10.954;2022-10-16T11:54:38;2.50;;;0.45;;
63693;SDS011;49839;51.798;10.954;2022-10-16T11:57:15;4.03;;;0.50;;
63693;SDS011;49839;51.798;10.954;2022-10-16T11:59:48;0.47;;;0.30;;
63693;SDS011;49839;51.798;10.954;2022-10-16T12:02:26;1.52;;;0.40;;
63693;SDS011;49839;51.798;10.954;2022-10-16T12:05:05;0.70;;;0.10;;
63693;SDS011;49839;51.798;10.954;2022-10-16T12:07:46;1.38;;;0.35;;
63693;SDS011;49839;51.798;10.954;2022-10-16T12:10:20;0.50;;;0.20;;
63693;SDS011;49839;51.798;10.954;2022-10-16T12:12:53;1.17;;;0.30;;
63693;SDS011;49839;51.798;10.954;2022-10-16T12:15:24;0.43;;;0.15;;
63693;SDS011;49839;51.798;10.954;2022-10-16T12:18:21;3.47;;;0.40;;
63693;SDS011;49839;51.798;10.954;2022-10-16T12:20:54;1.90;;;0.30;;
63693;SDS011;49839;51.798;10.954;2022-10-16T12:23:27;0.35;;;0.20;;
63693;SDS011;49839;51.798;10.954;2022-10-16T12:25:56;1.17;;;0.20;;
63693;SDS011;49839;51.798;10.954;2022-10-16T12:28:27;1.08;;;0.30;;
63693;SDS011;49839;51.798;10.954;2022-10-16T12:31:05;3.30;;;0.40;;
63693;SDS011;49839;51.798;10.954;2022-10-16T12:33:39;2.15;;;0.30;;
63693;SDS011;49839;51.798;10.954;2022-10-16T12:36:10;0.90;;;0.20;;
63693;SDS011;49839;51.798;10.954;2022-10-16T12:38:48;1.58;;;0.25;;
63693;SDS011;49839;51.798;10.954;2022-10-16T12:41:24;2.10;;;0.20;;
63693;SDS011;49839;51.798;10.954;2022-10-16T12:43:53;0.93;;;0.30;;
63693;SDS011;49839;51.798;10.954;2022-10-16T12:49:17;2.13;;;0.20;;
63693;SDS011;49839;51.798;10.954;2022-10-16T12:51:51;1.83;;;0.30;;
63693;SDS011;49839;51.798;10.954;2022-10-16T12:54:22;1.35;;;0.30;;
63693;SDS011;49839;51.798;10.954;2022-10-16T12:57:02;1.05;;;0.20;;
63693;SDS011;49839;51.798;10.954;2022-10-16T12:59:40;4.40;;;0.52;;
63693;SDS011;49839;51.798;10.954;2022-10-16T13:02:21;0.77;;;0.20;;
63693;SDS011;49839;51.798;10.954;2022-10-16T13:05:14;0.63;;;0.13;;
63693;SDS011;49839;51.798;10.954;2022-10-16T13:07:54;1.70;;;0.30;;
63693;SDS011;49839;51.798;10.954;2022-10-16T13:10:34;2.95;;;0.30;;
63693;SDS011;49839;51.798;10.954;2022-10-16T13:13:31;0.43;;;0.20;;
63693;SDS011;49839;51.798;10.954;2022-10-16T13:16:19;1.33;;;0.35;;
63693;SDS011;49839;51.798;10.954;2022-10-16T13:18:56;3.03;;;0.40;;
63693;SDS011;49839;51.798;10.954;2022-10-16T13:21:38;1.17;;;0.30;;
63693;SDS011;49839;51.798;10.954;2022-10-16T13:24:27;1.08;;;0.20;;
63693;SDS011;49839;51.798;10.954;2022-10-16T13:27:10;2.05;;;0.40;;
63693;SDS011;49839;51.798;10.954;2022-10-16T13:29:48;1.95;;;0.40;;
63693;SDS011;49839;51.798;10.954;2022-10-16T13:32:22;1.45;;;0.30;;
63693;SDS011;49839;51.798;10.954;2022-10-16T13:34:51;0.82;;;0.25;;
63693;SDS011;49839;51.798;10.954;2022-10-16T13:37:21;2.50;;;0.30;;
63693;SDS011;49839;51.798;10.954;2022-10-16T13:39:50;0.93;;;0.40;;
63693;SDS011;49839;51.798;10.954;2022-10-16T13:42:31;1.02;;;0.30;;
63693;SDS011;49839;51.798;10.954;2022-10-16T13:45:00;1.67;;;0.30;;
63693;SDS011;49839;51.798;10.954;2022-10-16T13:47:29;2.60;;;0.25;;
63693;SDS011;49839;51.798;10.954;2022-10-16T13:50:00;6.45;;;0.40;;
63693;SDS011;49839;51.798;10.954;2022-10-16T13:52:29;1.15;;;0.22;;
63693;SDS011;49839;51.798;10.954;2022-10-16T13:55:02;2.78;;;0.40;;
63693;SDS011;49839;51.798;10.954;2022-10-16T13:57:33;3.53;;;0.95;;
63693;SDS011;49839;51.798;10.954;2022-10-16T14:00:01;1.60;;;0.40;;
63693;SDS011;49839;51.798;10.954;2022-10-16T14:02:31;1.15;;;0.40;;
63693;SDS011;49839;51.798;10.954;2022-10-16T14:05:03;3.10;;;0.70;;
63693;SDS011;49839;51.798;10.954;2022-10-16T14:07:36;3.47;;;1.55;;
63693;SDS011;49839;51.798;10.954;2022-10-16T14:10:05;2.40;;;1.30;;
63693;SDS011;49839;51.798;10.954;2022-10-16T14:12:55;1.42;;;0.55;;
63693;SDS011;49839;51.798;10.954;2022-10-16T14:15:25;1.17;;;0.40;;
63693;SDS011;49839;51.798;10.954;2022-10-16T14:17:54;0.52;;;0.43;;
63693;SDS011;49839;51.798;10.954;2022-10-16T14:20:24;2.30;;;0.35;;
63693;SDS011;49839;51.798;10.954;2022-10-16T14:23:01;1.17;;;0.40;;
63693;SDS011;49839;51.798;10.954;2022-10-16T14:25:31;2.38;;;0.30;;
63693;SDS011;49839;51.798;10.954;2022-10-16T14:28:04;4.82;;;0.40;;
63693;SDS011;49839;51.798;10.954;2022-10-16T14:30:48;1.48;;;0.40;;
63693;SDS011;49839;51.798;10.954;2022-10-16T14:33:20;2.95;;;0.50;;
63693;SDS011;49839;51.798;10.954;2022-10-16T14:36:00;3.53;;;0.38;;
63693;SDS011;49839;51.798;10.954;2022-10-16T14:38:32;5.05;;;0.43;;
63693;SDS011;49839;51.798;10.954;2022-10-16T14:41:01;0.82;;;0.40;;
63693;SDS011;49839;51.798;10.954;2022-10-16T14:43:33;1.05;;;0.30;;
63693;SDS011;49839;51.798;10.954;2022-10-16T14:46:06;3.63;;;0.50;;
63693;SDS011;49839;51.798;10.954;2022-10-16T14:48:40;3.03;;;0.90;;
63693;SDS011;49839;51.798;10.954;2022-10-16T14:51:09;2.67;;;0.68;;
63693;SDS011;49839;51.798;10.954;2022-10-16T14:53:41;3.88;;;0.90;;
63693;SDS011;49839;51.798;10.954;2022-10-16T14:56:14;3.05;;;0.70;;
63693;SDS011;49839;51.798;10.954;2022-10-16T14:58:46;0.93;;;0.30;;
63693;SDS011;49839;51.798;10.954;2022-10-16T15:01:15;2.60;;;0.40;;
63693;SDS011;49839;51.798;10.954;2022-10-16T15:03:44;0.82;;;0.30;;
63693;SDS011;49839;51.798;10.954;2022-10-16T15:06:14;2.15;;;0.32;;
63693;SDS011;49839;51.798;10.954;2022-10-16T15:08:43;0.95;;;0.55;;
63693;SDS011;49839;51.798;10.954;2022-10-16T15:11:12;1.75;;;0.50;;
63693;SDS011;49839;51.798;10.954;2022-10-16T15:13:43;3.15;;;0.60;;
63693;SDS011;49839;51.798;10.954;2022-10-16T15:16:15;1.73;;;0.30;;
63693;SDS011;49839;51.798;10.954;2022-10-16T15:18:44;1.85;;;0.43;;
63693;SDS011;49839;51.798;10.954;2022-10-16T15:21:14;4.18;;;0.38;;
63693;SDS011;49839;51.798;10.954;2022-10-16T15:23:53;1.00;;;0.40;;
63693;SDS011;49839;51.798;10.954;2022-10-16T15:26:23;4.60;;;0.70;;
63693;SDS011;49839;51.798;10.954;2022-10-16T15:28:51;1.30;;;0.40;;
63693;SDS011;49839;51.798;10.954;2022-10-16T15:31:22;5.82;;;0.80;;